LGA weather

La Guardia Airport
New York, New York, United States

Public forecast

Using degrees Fahrenheit for public forecast. Weather courtesy of forecast.io.

METAR (pilot weather report)

Retrieved 2018/06/24 05:51 UTC (21 minutes ago):

KLGA 240551Z 04004KT 10SM FEW009 OVC019 19/17 A2982 RMK AO2 SLP098 T01890167 10189 20183 58003 $

TAF (pilot weather forecast)

Retrieved 2018/06/24 06:30 UTC (0 seconds ago):

TAF KLGA 240528Z 2406/2512 VRB03KT 6SM BR FEW009 OVC015 TEMPO 2406/2410 3SM BR BKN005 OVC007 FM241400 23006KT P6SM OVC020 FM241800 20010KT P6SM FEW100 BKN250 TEMPO 2422/2502 SHRA BKN040 FM250200 27005KT P6SM BKN250 FM250500 30008KT P6SM FEW030 BKN250 FM250800 35013KT P6SM FEW030 BKN250